Аэропорт: Омск-Центральный. Омск

ICAO: UNOO

METAR:
2018/09/19 07:30
UNOO 190730Z 16008MPS CAVOK 16/01 Q1019 R25/CLRD60 NOSIG RMK QFE756
METAR:
2018/09/19 06:24
TAF UNOO 190451Z 1906/2006 14007G14MPS 9999 SCT033